sensor_id;sensor_type;location;lat;lon;timestamp;P1;durP1;ratioP1;P2;durP2;ratioP2
8861;SDS011;4799;50.996;4.754;2023-04-01T00:00:17;7.77;;;2.90;;
8861;SDS011;4799;50.996;4.754;2023-04-01T00:02:43;8.63;;;2.80;;
8861;SDS011;4799;50.996;4.754;2023-04-01T00:05:09;7.47;;;2.83;;
8861;SDS011;4799;50.996;4.754;2023-04-01T00:07:37;7.83;;;2.90;;
8861;SDS011;4799;50.996;4.754;2023-04-01T00:10:04;7.60;;;2.63;;
8861;SDS011;4799;50.996;4.754;2023-04-01T00:12:31;8.10;;;2.70;;
8861;SDS011;4799;50.996;4.754;2023-04-01T00:14:57;9.90;;;2.67;;
8861;SDS011;4799;50.996;4.754;2023-04-01T00:17:23;8.13;;;2.97;;
8861;SDS011;4799;50.996;4.754;2023-04-01T00:19:50;6.43;;;2.80;;
8861;SDS011;4799;50.996;4.754;2023-04-01T00:22:15;8.10;;;2.90;;
8861;SDS011;4799;50.996;4.754;2023-04-01T00:24:41;8.23;;;2.93;;
8861;SDS011;4799;50.996;4.754;2023-04-01T00:27:07;7.47;;;3.00;;
8861;SDS011;4799;50.996;4.754;2023-04-01T00:29:33;5.10;;;3.00;;
8861;SDS011;4799;50.996;4.754;2023-04-01T00:31:59;7.63;;;3.00;;
8861;SDS011;4799;50.996;4.754;2023-04-01T00:34:25;7.83;;;2.90;;
8861;SDS011;4799;50.996;4.754;2023-04-01T00:36:52;6.60;;;3.00;;
8861;SDS011;4799;50.996;4.754;2023-04-01T00:39:21;6.60;;;2.93;;
8861;SDS011;4799;50.996;4.754;2023-04-01T00:41:47;6.30;;;3.00;;
8861;SDS011;4799;50.996;4.754;2023-04-01T00:44:24;6.47;;;3.03;;
8861;SDS011;4799;50.996;4.754;2023-04-01T00:46:54;5.70;;;3.20;;
8861;SDS011;4799;50.996;4.754;2023-04-01T00:49:22;5.43;;;3.07;;
8861;SDS011;4799;50.996;4.754;2023-04-01T00:51:52;5.53;;;3.10;;
8861;SDS011;4799;50.996;4.754;2023-04-01T00:54:20;6.23;;;3.07;;
8861;SDS011;4799;50.996;4.754;2023-04-01T00:56:48;6.33;;;2.90;;
8861;SDS011;4799;50.996;4.754;2023-04-01T00:59:27;5.57;;;2.90;;
8861;SDS011;4799;50.996;4.754;2023-04-01T01:01:56;6.37;;;3.10;;
8861;SDS011;4799;50.996;4.754;2023-04-01T01:04:23;6.70;;;3.20;;
8861;SDS011;4799;50.996;4.754;2023-04-01T01:09:35;5.37;;;3.27;;
8861;SDS011;4799;50.996;4.754;2023-04-01T01:12:19;5.33;;;2.90;;
8861;SDS011;4799;50.996;4.754;2023-04-01T01:14:52;6.43;;;2.90;;
8861;SDS011;4799;50.996;4.754;2023-04-01T01:20:11;5.40;;;2.53;;
8861;SDS011;4799;50.996;4.754;2023-04-01T01:23:41;4.40;;;2.30;;
8861;SDS011;4799;50.996;4.754;2023-04-01T01:37:01;4.27;;;2.27;;
8861;SDS011;4799;50.996;4.754;2023-04-01T01:39:33;4.73;;;2.30;;
8861;SDS011;4799;50.996;4.754;2023-04-01T01:42:02;5.03;;;2.73;;
8861;SDS011;4799;50.996;4.754;2023-04-01T01:44:31;5.10;;;2.80;;
8861;SDS011;4799;50.996;4.754;2023-04-01T01:46:58;6.27;;;2.93;;
8861;SDS011;4799;50.996;4.754;2023-04-01T01:49:25;4.20;;;2.87;;
8861;SDS011;4799;50.996;4.754;2023-04-01T01:51:55;5.80;;;2.97;;
8861;SDS011;4799;50.996;4.754;2023-04-01T01:54:21;7.57;;;3.73;;
8861;SDS011;4799;50.996;4.754;2023-04-01T01:56:48;5.10;;;3.37;;
8861;SDS011;4799;50.996;4.754;2023-04-01T01:59:17;6.37;;;3.40;;
8861;SDS011;4799;50.996;4.754;2023-04-01T02:01:47;5.30;;;3.50;;
8861;SDS011;4799;50.996;4.754;2023-04-01T02:04:16;6.43;;;3.40;;
8861;SDS011;4799;50.996;4.754;2023-04-01T02:06:46;6.13;;;3.20;;
8861;SDS011;4799;50.996;4.754;2023-04-01T02:09:28;4.33;;;2.83;;
8861;SDS011;4799;50.996;4.754;2023-04-01T02:12:02;5.63;;;3.13;;
8861;SDS011;4799;50.996;4.754;2023-04-01T02:17:07;7.27;;;3.60;;
8861;SDS011;4799;50.996;4.754;2023-04-01T02:19:56;5.00;;;2.80;;
8861;SDS011;4799;50.996;4.754;2023-04-01T02:22:31;5.63;;;3.13;;
8861;SDS011;4799;50.996;4.754;2023-04-01T02:25:07;5.13;;;3.33;;
8861;SDS011;4799;50.996;4.754;2023-04-01T02:27:35;5.30;;;3.77;;
8861;SDS011;4799;50.996;4.754;2023-04-01T02:30:02;7.70;;;4.20;;
8861;SDS011;4799;50.996;4.754;2023-04-01T02:32:28;6.70;;;4.10;;
8861;SDS011;4799;50.996;4.754;2023-04-01T02:34:55;5.60;;;3.70;;
8861;SDS011;4799;50.996;4.754;2023-04-01T02:37:22;5.60;;;4.00;;
8861;SDS011;4799;50.996;4.754;2023-04-01T02:39:48;7.77;;;4.20;;
8861;SDS011;4799;50.996;4.754;2023-04-01T02:42:14;6.03;;;4.00;;
8861;SDS011;4799;50.996;4.754;2023-04-01T02:44:40;6.50;;;3.47;;
8861;SDS011;4799;50.996;4.754;2023-04-01T02:47:06;6.67;;;4.20;;
8861;SDS011;4799;50.996;4.754;2023-04-01T02:49:31;6.63;;;4.30;;
8861;SDS011;4799;50.996;4.754;2023-04-01T02:51:57;7.37;;;4.27;;
8861;SDS011;4799;50.996;4.754;2023-04-01T02:54:23;9.57;;;4.47;;
8861;SDS011;4799;50.996;4.754;2023-04-01T02:56:48;7.43;;;4.17;;
8861;SDS011;4799;50.996;4.754;2023-04-01T02:59:14;5.87;;;4.40;;
8861;SDS011;4799;50.996;4.754;2023-04-01T03:01:40;8.97;;;4.27;;
8861;SDS011;4799;50.996;4.754;2023-04-01T03:04:06;8.77;;;4.47;;
8861;SDS011;4799;50.996;4.754;2023-04-01T03:06:32;8.23;;;4.17;;
8861;SDS011;4799;50.996;4.754;2023-04-01T03:08:57;7.77;;;4.03;;
8861;SDS011;4799;50.996;4.754;2023-04-01T03:11:23;6.13;;;3.90;;
8861;SDS011;4799;50.996;4.754;2023-04-01T03:13:51;8.20;;;4.20;;
8861;SDS011;4799;50.996;4.754;2023-04-01T03:16:16;7.37;;;3.90;;
8861;SDS011;4799;50.996;4.754;2023-04-01T03:18:42;7.30;;;4.33;;
8861;SDS011;4799;50.996;4.754;2023-04-01T03:21:19;5.40;;;4.03;;
8861;SDS011;4799;50.996;4.754;2023-04-01T03:23:49;7.63;;;3.40;;
8861;SDS011;4799;50.996;4.754;2023-04-01T03:26:15;7.13;;;3.40;;
8861;SDS011;4799;50.996;4.754;2023-04-01T03:28:41;6.47;;;3.70;;
8861;SDS011;4799;50.996;4.754;2023-04-01T03:31:07;6.77;;;3.33;;
8861;SDS011;4799;50.996;4.754;2023-04-01T03:33:33;6.53;;;3.80;;
8861;SDS011;4799;50.996;4.754;2023-04-01T03:35:59;5.13;;;3.40;;
8861;SDS011;4799;50.996;4.754;2023-04-01T03:38:25;5.77;;;3.57;;
8861;SDS011;4799;50.996;4.754;2023-04-01T03:40:50;6.77;;;3.27;;
8861;SDS011;4799;50.996;4.754;2023-04-01T03:43:16;5.93;;;3.60;;
8861;SDS011;4799;50.996;4.754;2023-04-01T03:45:48;4.87;;;3.80;;
8861;SDS011;4799;50.996;4.754;2023-04-01T03:48:15;6.23;;;4.10;;
8861;SDS011;4799;50.996;4.754;2023-04-01T03:50:41;6.30;;;3.73;;
8861;SDS011;4799;50.996;4.754;2023-04-01T03:53:08;5.10;;;3.73;;
8861;SDS011;4799;50.996;4.754;2023-04-01T03:55:37;6.30;;;3.90;;
8861;SDS011;4799;50.996;4.754;2023-04-01T03:58:04;6.20;;;3.90;;
8861;SDS011;4799;50.996;4.754;2023-04-01T04:00:30;6.23;;;4.17;;
8861;SDS011;4799;50.996;4.754;2023-04-01T04:02:56;6.77;;;3.90;;
8861;SDS011;4799;50.996;4.754;2023-04-01T04:05:22;5.07;;;3.87;;
8861;SDS011;4799;50.996;4.754;2023-04-01T04:07:49;5.47;;;4.23;;
8861;SDS011;4799;50.996;4.754;2023-04-01T04:10:15;6.43;;;4.33;;
8861;SDS011;4799;50.996;4.754;2023-04-01T04:12:41;7.57;;;4.50;;
8861;SDS011;4799;50.996;4.754;2023-04-01T04:15:07;6.27;;;4.07;;
8861;SDS011;4799;50.996;4.754;2023-04-01T04:17:33;7.20;;;4.77;;
8861;SDS011;4799;50.996;4.754;2023-04-01T04:19:59;4.87;;;4.30;;
8861;SDS011;4799;50.996;4.754;2023-04-01T04:22:25;6.70;;;4.63;;
8861;SDS011;4799;50.996;4.754;2023-04-01T04:24:50;5.10;;;4.43;;
8861;SDS011;4799;50.996;4.754;2023-04-01T04:27:16;9.10;;;5.07;;
8861;SDS011;4799;50.996;4.754;2023-04-01T04:29:42;8.20;;;4.63;;
8861;SDS011;4799;50.996;4.754;2023-04-01T04:32:08;7.03;;;5.40;;
8861;SDS011;4799;50.996;4.754;2023-04-01T04:34:34;9.50;;;5.53;;
8861;SDS011;4799;50.996;4.754;2023-04-01T04:36:59;7.53;;;5.60;;
8861;SDS011;4799;50.996;4.754;2023-04-01T04:39:25;9.87;;;6.30;;
8861;SDS011;4799;50.996;4.754;2023-04-01T04:41:51;9.53;;;6.10;;
8861;SDS011;4799;50.996;4.754;2023-04-01T04:44:17;10.20;;;7.20;;
8861;SDS011;4799;50.996;4.754;2023-04-01T04:46:42;11.13;;;6.83;;
8861;SDS011;4799;50.996;4.754;2023-04-01T04:49:08;11.27;;;7.47;;
8861;SDS011;4799;50.996;4.754;2023-04-01T04:51:34;10.23;;;7.00;;
8861;SDS011;4799;50.996;4.754;2023-04-01T04:54:01;10.53;;;7.37;;
8861;SDS011;4799;50.996;4.754;2023-04-01T04:56:28;11.60;;;7.40;;
8861;SDS011;4799;50.996;4.754;2023-04-01T04:58:54;9.73;;;7.20;;
8861;SDS011;4799;50.996;4.754;2023-04-01T05:01:20;10.47;;;7.30;;
8861;SDS011;4799;50.996;4.754;2023-04-01T05:03:47;10.67;;;7.77;;
8861;SDS011;4799;50.996;4.754;2023-04-01T05:06:13;12.13;;;8.33;;
8861;SDS011;4799;50.996;4.754;2023-04-01T05:08:40;12.03;;;8.20;;
8861;SDS011;4799;50.996;4.754;2023-04-01T05:11:09;14.13;;;9.37;;
8861;SDS011;4799;50.996;4.754;2023-04-01T05:13:40;11.87;;;9.90;;
8861;SDS011;4799;50.996;4.754;2023-04-01T05:16:11;12.60;;;9.90;;
8861;SDS011;4799;50.996;4.754;2023-04-01T05:18:38;15.67;;;10.20;;
8861;SDS011;4799;50.996;4.754;2023-04-01T05:21:04;10.90;;;9.80;;
8861;SDS011;4799;50.996;4.754;2023-04-01T05:23:32;12.87;;;10.73;;
8861;SDS011;4799;50.996;4.754;2023-04-01T05:25:58;11.73;;;9.70;;
8861;SDS011;4799;50.996;4.754;2023-04-01T05:28:28;11.63;;;10.20;;
8861;SDS011;4799;50.996;4.754;2023-04-01T05:30:53;10.47;;;9.37;;
8861;SDS011;4799;50.996;4.754;2023-04-01T05:33:19;11.27;;;9.90;;
8861;SDS011;4799;50.996;4.754;2023-04-01T05:35:45;12.13;;;9.70;;
8861;SDS011;4799;50.996;4.754;2023-04-01T05:38:10;10.97;;;9.30;;
8861;SDS011;4799;50.996;4.754;2023-04-01T05:40:36;10.93;;;9.20;;
8861;SDS011;4799;50.996;4.754;2023-04-01T05:43:02;9.80;;;8.80;;
8861;SDS011;4799;50.996;4.754;2023-04-01T05:45:27;11.53;;;8.90;;
8861;SDS011;4799;50.996;4.754;2023-04-01T05:47:53;10.43;;;8.67;;
8861;SDS011;4799;50.996;4.754;2023-04-01T05:50:19;10.47;;;8.63;;
8861;SDS011;4799;50.996;4.754;2023-04-01T05:52:45;11.00;;;8.40;;
8861;SDS011;4799;50.996;4.754;2023-04-01T05:55:10;10.90;;;8.00;;
8861;SDS011;4799;50.996;4.754;2023-04-01T05:57:36;9.17;;;8.07;;
8861;SDS011;4799;50.996;4.754;2023-04-01T06:00:02;9.67;;;7.77;;
8861;SDS011;4799;50.996;4.754;2023-04-01T06:02:29;10.33;;;8.07;;
8861;SDS011;4799;50.996;4.754;2023-04-01T06:05:03;10.20;;;8.60;;
8861;SDS011;4799;50.996;4.754;2023-04-01T06:07:36;9.50;;;8.30;;
8861;SDS011;4799;50.996;4.754;2023-04-01T06:10:02;9.63;;;8.63;;
8861;SDS011;4799;50.996;4.754;2023-04-01T06:15:30;8.73;;;7.83;;
8861;SDS011;4799;50.996;4.754;2023-04-01T06:26:32;5.83;;;5.33;;
8861;SDS011;4799;50.996;4.754;2023-04-01T06:32:18;4.83;;;4.43;;
8861;SDS011;4799;50.996;4.754;2023-04-01T06:42:57;4.63;;;4.23;;
8861;SDS011;4799;50.996;4.754;2023-04-01T06:46:00;5.47;;;4.97;;
8861;SDS011;4799;50.996;4.754;2023-04-01T06:48:48;6.07;;;5.07;;
8861;SDS011;4799;50.996;4.754;2023-04-01T06:51:57;5.53;;;5.03;;
8861;SDS011;4799;50.996;4.754;2023-04-01T06:54:35;5.57;;;4.80;;
8861;SDS011;4799;50.996;4.754;2023-04-01T06:57:20;5.23;;;4.27;;
8861;SDS011;4799;50.996;4.754;2023-04-01T06:59:54;5.80;;;4.43;;
8861;SDS011;4799;50.996;4.754;2023-04-01T07:02:43;5.33;;;4.07;;
8861;SDS011;4799;50.996;4.754;2023-04-01T07:05:18;4.50;;;4.10;;
8861;SDS011;4799;50.996;4.754;2023-04-01T07:07:46;4.97;;;4.03;;
8861;SDS011;4799;50.996;4.754;2023-04-01T07:12:49;4.60;;;3.33;;
8861;SDS011;4799;50.996;4.754;2023-04-01T07:15:28;4.30;;;3.93;;
8861;SDS011;4799;50.996;4.754;2023-04-01T07:18:11;5.00;;;4.50;;
8861;SDS011;4799;50.996;4.754;2023-04-01T07:20:43;4.73;;;4.27;;
8861;SDS011;4799;50.996;4.754;2023-04-01T07:23:15;4.60;;;4.20;;
8861;SDS011;4799;50.996;4.754;2023-04-01T07:25:48;4.70;;;3.83;;
8861;SDS011;4799;50.996;4.754;2023-04-01T07:28:18;5.10;;;4.10;;
8861;SDS011;4799;50.996;4.754;2023-04-01T07:36:17;4.07;;;3.70;;
8861;SDS011;4799;50.996;4.754;2023-04-01T07:50:38;3.40;;;3.10;;
8861;SDS011;4799;50.996;4.754;2023-04-01T07:56:10;3.20;;;2.90;;
8861;SDS011;4799;50.996;4.754;2023-04-01T08:07:06;3.60;;;3.30;;
8861;SDS011;4799;50.996;4.754;2023-04-01T08:15:19;4.93;;;4.53;;
8861;SDS011;4799;50.996;4.754;2023-04-01T08:18:03;5.37;;;4.97;;
8861;SDS011;4799;50.996;4.754;2023-04-01T08:23:40;4.73;;;4.30;;
8861;SDS011;4799;50.996;4.754;2023-04-01T08:26:11;5.10;;;4.53;;
8861;SDS011;4799;50.996;4.754;2023-04-01T08:31:37;4.20;;;3.90;;
8861;SDS011;4799;50.996;4.754;2023-04-01T08:34:30;5.40;;;3.93;;
8861;SDS011;4799;50.996;4.754;2023-04-01T08:37:04;4.63;;;4.23;;
8861;SDS011;4799;50.996;4.754;2023-04-01T08:39:41;4.00;;;3.70;;
8861;SDS011;4799;50.996;4.754;2023-04-01T08:42:26;4.23;;;3.87;;
8861;SDS011;4799;50.996;4.754;2023-04-01T08:48:10;4.30;;;4.00;;
8861;SDS011;4799;50.996;4.754;2023-04-01T09:09:48;2.47;;;2.30;;
8861;SDS011;4799;50.996;4.754;2023-04-01T09:27:03;2.30;;;2.10;;
8861;SDS011;4799;50.996;4.754;2023-04-01T09:32:25;3.03;;;2.40;;
8861;SDS011;4799;50.996;4.754;2023-04-01T09:40:55;2.53;;;2.33;;
8861;SDS011;4799;50.996;4.754;2023-04-01T09:49:00;2.80;;;2.60;;
8861;SDS011;4799;50.996;4.754;2023-04-01T10:18:01;3.10;;;2.90;;
8861;SDS011;4799;50.996;4.754;2023-04-01T10:31:34;6.37;;;5.87;;
8861;SDS011;4799;50.996;4.754;2023-04-01T11:16:55;10.80;;;9.80;;
8861;SDS011;4799;50.996;4.754;2023-04-01T11:21:46;8.27;;;7.57;;
8861;SDS011;4799;50.996;4.754;2023-04-01T11:32:24;5.83;;;5.33;;
8861;SDS011;4799;50.996;4.754;2023-04-01T11:43:16;6.73;;;6.20;;
8861;SDS011;4799;50.996;4.754;2023-04-01T11:46:03;6.33;;;5.73;;
8861;SDS011;4799;50.996;4.754;2023-04-01T11:48:58;5.83;;;5.37;;
8861;SDS011;4799;50.996;4.754;2023-04-01T12:05:13;6.97;;;6.37;;
8861;SDS011;4799;50.996;4.754;2023-04-01T12:10:39;6.60;;;6.10;;
8861;SDS011;4799;50.996;4.754;2023-04-01T12:19:07;6.53;;;6.03;;
8861;SDS011;4799;50.996;4.754;2023-04-01T12:24:29;6.77;;;6.20;;
8861;SDS011;4799;50.996;4.754;2023-04-01T12:27:35;7.43;;;6.83;;
8861;SDS011;4799;50.996;4.754;2023-04-01T12:30:22;7.37;;;6.77;;
8861;SDS011;4799;50.996;4.754;2023-04-01T12:36:07;6.70;;;6.20;;
8861;SDS011;4799;50.996;4.754;2023-04-01T12:41:30;7.93;;;7.33;;
8861;SDS011;4799;50.996;4.754;2023-04-01T13:00:18;5.47;;;4.97;;
8861;SDS011;4799;50.996;4.754;2023-04-01T13:29:10;4.03;;;3.73;;
8861;SDS011;4799;50.996;4.754;2023-04-01T13:35:18;3.80;;;3.50;;
8861;SDS011;4799;50.996;4.754;2023-04-01T13:45:09;2.50;;;2.30;;
8861;SDS011;4799;50.996;4.754;2023-04-01T14:47:14;2.40;;;2.20;;
8861;SDS011;4799;50.996;4.754;2023-04-01T14:50:26;2.40;;;2.20;;
8861;SDS011;4799;50.996;4.754;2023-04-01T14:52:59;2.77;;;2.00;;
8861;SDS011;4799;50.996;4.754;2023-04-01T14:56:04;2.73;;;2.07;;
8861;SDS011;4799;50.996;4.754;2023-04-01T14:58:43;2.60;;;1.90;;
8861;SDS011;4799;50.996;4.754;2023-04-01T15:18:37;1.47;;;1.30;;
8861;SDS011;4799;50.996;4.754;2023-04-01T15:27:48;1.50;;;1.00;;
8861;SDS011;4799;50.996;4.754;2023-04-01T15:35:17;1.40;;;1.00;;
8861;SDS011;4799;50.996;4.754;2023-04-01T15:38:05;2.00;;;1.17;;
8861;SDS011;4799;50.996;4.754;2023-04-01T15:40:54;1.50;;;1.20;;
8861;SDS011;4799;50.996;4.754;2023-04-01T15:43:46;3.00;;;1.83;;
8861;SDS011;4799;50.996;4.754;2023-04-01T16:00:41;4.03;;;3.63;;
8861;SDS011;4799;50.996;4.754;2023-04-01T16:03:30;3.97;;;3.67;;
8861;SDS011;4799;50.996;4.754;2023-04-01T16:06:18;4.17;;;3.77;;
8861;SDS011;4799;50.996;4.754;2023-04-01T16:14:48;4.07;;;3.53;;
8861;SDS011;4799;50.996;4.754;2023-04-01T16:20:43;4.03;;;3.60;;
8861;SDS011;4799;50.996;4.754;2023-04-01T16:23:49;4.30;;;3.90;;
8861;SDS011;4799;50.996;4.754;2023-04-01T16:26:39;5.10;;;3.53;;
8861;SDS011;4799;50.996;4.754;2023-04-01T16:29:28;3.60;;;3.30;;
8861;SDS011;4799;50.996;4.754;2023-04-01T16:32:17;3.13;;;2.63;;
8861;SDS011;4799;50.996;4.754;2023-04-01T16:37:49;3.43;;;3.13;;
8861;SDS011;4799;50.996;4.754;2023-04-01T16:49:00;2.60;;;2.40;;
8861;SDS011;4799;50.996;4.754;2023-04-01T16:51:37;3.40;;;2.80;;
8861;SDS011;4799;50.996;4.754;2023-04-01T16:54:12;3.77;;;3.40;;
8861;SDS011;4799;50.996;4.754;2023-04-01T16:56:50;3.03;;;2.83;;
8861;SDS011;4799;50.996;4.754;2023-04-01T17:04:43;4.03;;;2.90;;
8861;SDS011;4799;50.996;4.754;2023-04-01T17:15:54;2.90;;;2.63;;
8861;SDS011;4799;50.996;4.754;2023-04-01T17:18:33;3.00;;;2.70;;
8861;SDS011;4799;50.996;4.754;2023-04-01T17:21:16;3.20;;;2.90;;
8861;SDS011;4799;50.996;4.754;2023-04-01T17:40:50;4.33;;;3.93;;
8861;SDS011;4799;50.996;4.754;2023-04-01T17:43:40;5.87;;;5.33;;
8861;SDS011;4799;50.996;4.754;2023-04-01T17:51:55;5.63;;;5.07;;
8861;SDS011;4799;50.996;4.754;2023-04-01T17:57:54;7.83;;;7.13;;
8861;SDS011;4799;50.996;4.754;2023-04-01T18:03:12;6.77;;;6.17;;
8861;SDS011;4799;50.996;4.754;2023-04-01T18:21:46;7.23;;;6.63;;
8861;SDS011;4799;50.996;4.754;2023-04-01T18:29:37;9.10;;;8.30;;
8861;SDS011;4799;50.996;4.754;2023-04-01T18:32:35;9.60;;;8.80;;
8861;SDS011;4799;50.996;4.754;2023-04-01T18:41:15;11.67;;;10.57;;
8861;SDS011;4799;50.996;4.754;2023-04-01T18:43:57;13.47;;;12.27;;
8861;SDS011;4799;50.996;4.754;2023-04-01T18:52:51;14.70;;;13.30;;
8861;SDS011;4799;50.996;4.754;2023-04-01T18:55:56;15.70;;;14.20;;
8861;SDS011;4799;50.996;4.754;2023-04-01T18:58:35;16.37;;;14.97;;
8861;SDS011;4799;50.996;4.754;2023-04-01T19:01:12;19.63;;;17.73;;
8861;SDS011;4799;50.996;4.754;2023-04-01T19:09:17;20.27;;;17.57;;
8861;SDS011;4799;50.996;4.754;2023-04-01T19:12:09;19.67;;;16.90;;
8861;SDS011;4799;50.996;4.754;2023-04-01T19:14:44;20.40;;;18.20;;
8861;SDS011;4799;50.996;4.754;2023-04-01T19:30:56;20.13;;;17.83;;
8861;SDS011;4799;50.996;4.754;2023-04-01T19:36:24;21.50;;;19.20;;
8861;SDS011;4799;50.996;4.754;2023-04-01T19:45:06;20.83;;;18.60;;
8861;SDS011;4799;50.996;4.754;2023-04-01T19:47:52;21.10;;;18.90;;
8861;SDS011;4799;50.996;4.754;2023-04-01T19:50:44;26.73;;;20.83;;
8861;SDS011;4799;50.996;4.754;2023-04-01T19:55:53;23.97;;;20.67;;
8861;SDS011;4799;50.996;4.754;2023-04-01T19:58:40;27.00;;;20.70;;
8861;SDS011;4799;50.996;4.754;2023-04-01T20:01:08;27.80;;;21.67;;
8861;SDS011;4799;50.996;4.754;2023-04-01T20:06:27;26.37;;;20.63;;
8861;SDS011;4799;50.996;4.754;2023-04-01T20:12:08;24.43;;;21.27;;
8861;SDS011;4799;50.996;4.754;2023-04-01T20:14:57;26.40;;;22.90;;
8861;SDS011;4799;50.996;4.754;2023-04-01T20:20:13;28.57;;;23.57;;
8861;SDS011;4799;50.996;4.754;2023-04-01T20:25:12;33.03;;;24.93;;
8861;SDS011;4799;50.996;4.754;2023-04-01T20:28:02;34.77;;;25.60;;
8861;SDS011;4799;50.996;4.754;2023-04-01T20:33:58;35.07;;;25.23;;
8861;SDS011;4799;50.996;4.754;2023-04-01T20:36:53;34.00;;;24.67;;
8861;SDS011;4799;50.996;4.754;2023-04-01T20:45:35;32.63;;;24.00;;
8861;SDS011;4799;50.996;4.754;2023-04-01T20:51:21;35.23;;;24.80;;
8861;SDS011;4799;50.996;4.754;2023-04-01T20:56:54;37.87;;;26.73;;
8861;SDS011;4799;50.996;4.754;2023-04-01T21:07:28;24.90;;;19.47;;
8861;SDS011;4799;50.996;4.754;2023-04-01T21:15:48;20.17;;;16.90;;
8861;SDS011;4799;50.996;4.754;2023-04-01T21:23:54;24.73;;;18.93;;
8861;SDS011;4799;50.996;4.754;2023-04-01T21:26:57;22.50;;;18.93;;
8861;SDS011;4799;50.996;4.754;2023-04-01T21:33:13;22.50;;;19.57;;
8861;SDS011;4799;50.996;4.754;2023-04-01T21:35:32;24.80;;;19.97;;
8861;SDS011;4799;50.996;4.754;2023-04-01T22:00:31;27.60;;;24.63;;
8861;SDS011;4799;50.996;4.754;2023-04-01T22:06:06;31.13;;;25.97;;
8861;SDS011;4799;50.996;4.754;2023-04-01T22:08:47;32.53;;;27.23;;
8861;SDS011;4799;50.996;4.754;2023-04-01T22:11:38;29.50;;;26.00;;
8861;SDS011;4799;50.996;4.754;2023-04-01T22:14:25;24.00;;;21.53;;
8861;SDS011;4799;50.996;4.754;2023-04-01T22:16:57;23.80;;;21.17;;
8861;SDS011;4799;50.996;4.754;2023-04-01T22:22:22;25.10;;;21.43;;
8861;SDS011;4799;50.996;4.754;2023-04-01T22:35:25;28.20;;;23.10;;
8861;SDS011;4799;50.996;4.754;2023-04-01T22:38:02;31.13;;;25.77;;
8861;SDS011;4799;50.996;4.754;2023-04-01T22:40:42;38.57;;;27.93;;
8861;SDS011;4799;50.996;4.754;2023-04-01T22:48:52;44.60;;;32.40;;
8861;SDS011;4799;50.996;4.754;2023-04-01T22:54:14;37.53;;;30.43;;
8861;SDS011;4799;50.996;4.754;2023-04-01T22:56:55;35.93;;;29.50;;
8861;SDS011;4799;50.996;4.754;2023-04-01T23:02:24;31.37;;;27.13;;
8861;SDS011;4799;50.996;4.754;2023-04-01T23:05:03;28.37;;;25.37;;
8861;SDS011;4799;50.996;4.754;2023-04-01T23:10:54;23.67;;;21.37;;
8861;SDS011;4799;50.996;4.754;2023-04-01T23:16:30;20.60;;;18.50;;
8861;SDS011;4799;50.996;4.754;2023-04-01T23:27:03;17.00;;;15.30;;
8861;SDS011;4799;50.996;4.754;2023-04-01T23:29:37;16.47;;;14.87;;
8861;SDS011;4799;50.996;4.754;2023-04-01T23:32:05;16.20;;;14.70;;
8861;SDS011;4799;50.996;4.754;2023-04-01T23:34:45;14.63;;;13.23;;
8861;SDS011;4799;50.996;4.754;2023-04-01T23:37:16;13.40;;;12.17;;
8861;SDS011;4799;50.996;4.754;2023-04-01T23:39:54;12.97;;;11.77;;
8861;SDS011;4799;50.996;4.754;2023-04-01T23:42:25;12.93;;;11.73;;
8861;SDS011;4799;50.996;4.754;2023-04-01T23:45:16;13.17;;;11.87;;
8861;SDS011;4799;50.996;4.754;2023-04-01T23:47:45;12.77;;;11.57;;
8861;SDS011;4799;50.996;4.754;2023-04-01T23:50:16;12.83;;;11.63;;
8861;SDS011;4799;50.996;4.754;2023-04-01T23:52:48;12.83;;;11.50;;
8861;SDS011;4799;50.996;4.754;2023-04-01T23:55:28;11.70;;;10.60;;
8861;SDS011;4799;50.996;4.754;2023-04-01T23:58:18;11.37;;;10.27;;
